Newquay, United Kingdom

7:46 PM BST on August 27, 2016 (GMT +0100)
Newquay | | Change Station

Elev 119 ft 50.42 °N, 5.05 °W | Updated 1 minute ago

Mostly Cloudy
Mostly Cloudy
67.8 °F
Feels Like 67.8 °F
N
3.0
Wind Variable Wind from SSW
Gusts 8.0 mph

Today
High -- | Low -- °F
--% Chance of Precip.
Yesterday
High -- | Low -- °F
Precip. -- in
Pressure 29.89 in
Visibility 6.2 miles
Clouds Mostly Cloudy 600 ft
Dew Point 60 °F
Humidity 76%
Rainfall 0.00 in
Snow Depth Not available.
6:27 AM 8:14 PM
Waning Crescent, 22% visible
METAR EGDR 271750Z AUTO 22010KT 9999 // BKN006/// 17/16 Q1012
Pressure 29.89 in
Visibility 6.2 miles
Clouds Mostly Cloudy 600 ft
Dew Point 60 °F
Humidity 76%
Rainfall 0.00 in
Snow Depth Not available.
6:27 AM 8:14 PM
Waning Crescent, 22% visible
METAR EGDR 271750Z AUTO 22010KT 9999 // BKN006/// 17/16 Q1012

10-Day Weather Forecast

×

Almanac

Astronomy

Aug. 27, 2016 Rise Set
Actual Time
Civil Twilight
Nautical Twilight
Astronomical Twilight
Moon
Length of Visible Light
Length of Day
Tomorrow will be .
, % of the Moon is Illuminated

Today's Extremes

Country Highs Country Lows

Community

WunderPhotos

Upload Photos

1,935,399 photos uploaded!

WunderBlog® & News

Nearby

Air Quality

  Air Quality AQ Index Pollutant
Not available.

Snow Depth

Station Depth Elevation

Earthquake Activity

City Distance Mag. Time & Date
Minimum magnitude displayed is 2.5.

Coastal Water Temperatures

Place Temperature

Stations

Nearby Weather Stations

Station Location Temp. Windchill Dew Point Humidity Wind Precip. Elev Updated Type